sensor_id;sensor_type;location;lat;lon;timestamp;P1;durP1;ratioP1;P2;durP2;ratioP2
57401;SDS011;43226;51.110;6.998;2023-07-13T00:01:54;3.60;;;1.30;;
57401;SDS011;43226;51.110;6.998;2023-07-13T00:04:21;1.93;;;1.10;;
57401;SDS011;43226;51.110;6.998;2023-07-13T00:06:47;1.27;;;1.00;;
57401;SDS011;43226;51.110;6.998;2023-07-13T00:09:13;2.37;;;1.00;;
57401;SDS011;43226;51.110;6.998;2023-07-13T00:11:39;2.00;;;1.27;;
57401;SDS011;43226;51.110;6.998;2023-07-13T00:14:05;4.23;;;1.13;;
57401;SDS011;43226;51.110;6.998;2023-07-13T00:16:30;2.33;;;1.20;;
57401;SDS011;43226;51.110;6.998;2023-07-13T00:18:56;1.33;;;1.00;;
57401;SDS011;43226;51.110;6.998;2023-07-13T00:21:21;3.10;;;1.43;;
57401;SDS011;43226;51.110;6.998;2023-07-13T00:23:46;2.20;;;1.10;;
57401;SDS011;43226;51.110;6.998;2023-07-13T00:26:12;1.20;;;1.10;;
57401;SDS011;43226;51.110;6.998;2023-07-13T00:28:37;3.10;;;1.20;;
57401;SDS011;43226;51.110;6.998;2023-07-13T00:31:03;8.67;;;1.67;;
57401;SDS011;43226;51.110;6.998;2023-07-13T00:33:28;2.50;;;1.37;;
57401;SDS011;43226;51.110;6.998;2023-07-13T00:35:54;4.20;;;1.10;;
57401;SDS011;43226;51.110;6.998;2023-07-13T00:38:19;3.47;;;1.50;;
57401;SDS011;43226;51.110;6.998;2023-07-13T00:40:44;3.40;;;1.20;;
57401;SDS011;43226;51.110;6.998;2023-07-13T00:43:13;3.93;;;1.60;;
57401;SDS011;43226;51.110;6.998;2023-07-13T00:48:14;3.03;;;1.17;;
57401;SDS011;43226;51.110;6.998;2023-07-13T00:50:40;4.10;;;1.67;;
57401;SDS011;43226;51.110;6.998;2023-07-13T00:53:05;5.00;;;2.83;;
57401;SDS011;43226;51.110;6.998;2023-07-13T00:55:30;5.57;;;1.60;;
57401;SDS011;43226;51.110;6.998;2023-07-13T00:57:56;6.97;;;1.50;;
57401;SDS011;43226;51.110;6.998;2023-07-13T01:00:21;2.00;;;1.40;;
57401;SDS011;43226;51.110;6.998;2023-07-13T01:02:47;5.13;;;1.77;;
57401;SDS011;43226;51.110;6.998;2023-07-13T01:05:14;6.03;;;1.27;;
57401;SDS011;43226;51.110;6.998;2023-07-13T01:07:40;4.40;;;1.40;;
57401;SDS011;43226;51.110;6.998;2023-07-13T01:10:06;2.93;;;1.50;;
57401;SDS011;43226;51.110;6.998;2023-07-13T01:12:31;4.00;;;1.50;;
57401;SDS011;43226;51.110;6.998;2023-07-13T01:14:57;3.07;;;1.30;;
57401;SDS011;43226;51.110;6.998;2023-07-13T01:17:23;1.50;;;1.13;;
57401;SDS011;43226;51.110;6.998;2023-07-13T01:19:48;5.60;;;1.20;;
57401;SDS011;43226;51.110;6.998;2023-07-13T01:22:15;2.77;;;1.30;;
57401;SDS011;43226;51.110;6.998;2023-07-13T01:24:42;1.80;;;1.00;;
57401;SDS011;43226;51.110;6.998;2023-07-13T01:27:08;2.80;;;1.30;;
57401;SDS011;43226;51.110;6.998;2023-07-13T01:29:34;2.90;;;1.20;;
57401;SDS011;43226;51.110;6.998;2023-07-13T01:31:59;2.37;;;1.40;;
57401;SDS011;43226;51.110;6.998;2023-07-13T01:34:25;2.10;;;1.33;;
57401;SDS011;43226;51.110;6.998;2023-07-13T01:36:50;3.43;;;1.13;;
57401;SDS011;43226;51.110;6.998;2023-07-13T01:39:18;5.73;;;1.17;;
57401;SDS011;43226;51.110;6.998;2023-07-13T01:41:43;4.40;;;1.30;;
57401;SDS011;43226;51.110;6.998;2023-07-13T01:44:08;1.20;;;1.10;;
57401;SDS011;43226;51.110;6.998;2023-07-13T01:46:34;2.33;;;1.23;;
57401;SDS011;43226;51.110;6.998;2023-07-13T01:48:59;2.20;;;1.40;;
57401;SDS011;43226;51.110;6.998;2023-07-13T01:51:24;1.73;;;1.13;;
57401;SDS011;43226;51.110;6.998;2023-07-13T01:53:49;2.90;;;1.37;;
57401;SDS011;43226;51.110;6.998;2023-07-13T01:56:14;2.00;;;1.10;;
57401;SDS011;43226;51.110;6.998;2023-07-13T01:58:40;5.50;;;1.53;;
57401;SDS011;43226;51.110;6.998;2023-07-13T02:01:05;1.93;;;1.20;;
57401;SDS011;43226;51.110;6.998;2023-07-13T02:03:30;5.10;;;1.30;;
57401;SDS011;43226;51.110;6.998;2023-07-13T02:05:55;2.90;;;1.20;;
57401;SDS011;43226;51.110;6.998;2023-07-13T02:08:20;3.07;;;1.17;;
57401;SDS011;43226;51.110;6.998;2023-07-13T02:10:46;1.47;;;1.20;;
57401;SDS011;43226;51.110;6.998;2023-07-13T02:13:11;3.63;;;1.70;;
57401;SDS011;43226;51.110;6.998;2023-07-13T02:15:38;1.53;;;1.20;;
57401;SDS011;43226;51.110;6.998;2023-07-13T02:18:03;5.13;;;1.27;;
57401;SDS011;43226;51.110;6.998;2023-07-13T02:20:28;2.30;;;1.20;;
57401;SDS011;43226;51.110;6.998;2023-07-13T02:22:54;3.10;;;1.43;;
57401;SDS011;43226;51.110;6.998;2023-07-13T02:25:19;4.40;;;1.23;;
57401;SDS011;43226;51.110;6.998;2023-07-13T02:27:44;8.30;;;1.23;;
57401;SDS011;43226;51.110;6.998;2023-07-13T02:30:10;2.37;;;1.20;;
57401;SDS011;43226;51.110;6.998;2023-07-13T02:32:36;2.30;;;1.30;;
57401;SDS011;43226;51.110;6.998;2023-07-13T02:35:01;3.60;;;1.17;;
57401;SDS011;43226;51.110;6.998;2023-07-13T02:37:27;3.63;;;1.33;;
57401;SDS011;43226;51.110;6.998;2023-07-13T02:39:52;1.87;;;1.20;;
57401;SDS011;43226;51.110;6.998;2023-07-13T02:42:17;4.93;;;1.30;;
57401;SDS011;43226;51.110;6.998;2023-07-13T02:44:42;4.47;;;1.40;;
57401;SDS011;43226;51.110;6.998;2023-07-13T02:47:08;1.50;;;1.20;;
57401;SDS011;43226;51.110;6.998;2023-07-13T02:49:33;3.30;;;1.40;;
57401;SDS011;43226;51.110;6.998;2023-07-13T02:51:58;2.17;;;1.37;;
57401;SDS011;43226;51.110;6.998;2023-07-13T02:54:23;2.93;;;1.27;;
57401;SDS011;43226;51.110;6.998;2023-07-13T02:56:48;6.10;;;1.60;;
57401;SDS011;43226;51.110;6.998;2023-07-13T02:59:14;6.23;;;1.40;;
57401;SDS011;43226;51.110;6.998;2023-07-13T03:01:39;1.70;;;1.37;;
57401;SDS011;43226;51.110;6.998;2023-07-13T03:04:05;3.30;;;1.70;;
57401;SDS011;43226;51.110;6.998;2023-07-13T03:06:30;1.40;;;1.23;;
57401;SDS011;43226;51.110;6.998;2023-07-13T03:08:56;1.40;;;1.20;;
57401;SDS011;43226;51.110;6.998;2023-07-13T03:11:21;1.50;;;1.13;;
57401;SDS011;43226;51.110;6.998;2023-07-13T03:13:46;1.73;;;1.20;;
57401;SDS011;43226;51.110;6.998;2023-07-13T03:16:12;2.27;;;1.53;;
57401;SDS011;43226;51.110;6.998;2023-07-13T03:18:37;2.90;;;1.43;;
57401;SDS011;43226;51.110;6.998;2023-07-13T03:21:03;3.80;;;1.40;;
57401;SDS011;43226;51.110;6.998;2023-07-13T03:23:28;3.10;;;1.77;;
57401;SDS011;43226;51.110;6.998;2023-07-13T03:28:28;5.30;;;2.33;;
57401;SDS011;43226;51.110;6.998;2023-07-13T03:31:03;3.37;;;2.00;;
57401;SDS011;43226;51.110;6.998;2023-07-13T03:33:29;5.17;;;2.00;;
57401;SDS011;43226;51.110;6.998;2023-07-13T03:35:54;4.87;;;2.40;;
57401;SDS011;43226;51.110;6.998;2023-07-13T03:38:19;2.53;;;2.07;;
57401;SDS011;43226;51.110;6.998;2023-07-13T03:40:45;4.93;;;1.93;;
57401;SDS011;43226;51.110;6.998;2023-07-13T03:43:10;2.40;;;1.57;;
57401;SDS011;43226;51.110;6.998;2023-07-13T03:45:37;1.93;;;1.47;;
57401;SDS011;43226;51.110;6.998;2023-07-13T03:48:02;7.60;;;2.40;;
57401;SDS011;43226;51.110;6.998;2023-07-13T03:50:27;3.97;;;2.10;;
57401;SDS011;43226;51.110;6.998;2023-07-13T03:52:52;7.10;;;2.10;;
57401;SDS011;43226;51.110;6.998;2023-07-13T03:55:18;7.87;;;2.40;;
57401;SDS011;43226;51.110;6.998;2023-07-13T03:57:43;2.50;;;1.33;;
57401;SDS011;43226;51.110;6.998;2023-07-13T04:00:08;3.53;;;1.67;;
57401;SDS011;43226;51.110;6.998;2023-07-13T04:02:34;7.23;;;1.40;;
57401;SDS011;43226;51.110;6.998;2023-07-13T04:04:59;3.73;;;1.30;;
57401;SDS011;43226;51.110;6.998;2023-07-13T04:07:24;3.07;;;1.70;;
57401;SDS011;43226;51.110;6.998;2023-07-13T04:09:49;2.97;;;1.37;;
57401;SDS011;43226;51.110;6.998;2023-07-13T04:12:14;3.20;;;1.40;;
57401;SDS011;43226;51.110;6.998;2023-07-13T04:14:40;1.43;;;1.10;;
57401;SDS011;43226;51.110;6.998;2023-07-13T04:17:05;3.53;;;1.43;;
57401;SDS011;43226;51.110;6.998;2023-07-13T04:19:30;2.10;;;1.20;;
57401;SDS011;43226;51.110;6.998;2023-07-13T04:21:55;1.20;;;1.10;;
57401;SDS011;43226;51.110;6.998;2023-07-13T04:24:20;1.30;;;1.20;;
57401;SDS011;43226;51.110;6.998;2023-07-13T04:26:46;2.07;;;1.40;;
57401;SDS011;43226;51.110;6.998;2023-07-13T04:29:11;2.93;;;1.30;;
57401;SDS011;43226;51.110;6.998;2023-07-13T04:31:36;2.57;;;1.40;;
57401;SDS011;43226;51.110;6.998;2023-07-13T04:34:01;3.53;;;1.20;;
57401;SDS011;43226;51.110;6.998;2023-07-13T04:36:27;8.40;;;2.20;;
57401;SDS011;43226;51.110;6.998;2023-07-13T04:38:53;3.43;;;1.10;;
57401;SDS011;43226;51.110;6.998;2023-07-13T04:41:19;3.10;;;1.43;;
57401;SDS011;43226;51.110;6.998;2023-07-13T04:43:44;2.80;;;1.20;;
57401;SDS011;43226;51.110;6.998;2023-07-13T04:46:11;1.83;;;1.00;;
57401;SDS011;43226;51.110;6.998;2023-07-13T04:48:37;1.27;;;1.10;;
57401;SDS011;43226;51.110;6.998;2023-07-13T04:51:02;6.10;;;1.30;;
57401;SDS011;43226;51.110;6.998;2023-07-13T04:53:28;3.37;;;1.33;;
57401;SDS011;43226;51.110;6.998;2023-07-13T04:55:54;3.77;;;1.50;;
57401;SDS011;43226;51.110;6.998;2023-07-13T04:58:20;4.50;;;1.50;;
57401;SDS011;43226;51.110;6.998;2023-07-13T05:00:46;3.13;;;1.30;;
57401;SDS011;43226;51.110;6.998;2023-07-13T05:03:11;3.03;;;1.20;;
57401;SDS011;43226;51.110;6.998;2023-07-13T05:05:36;5.33;;;1.40;;
57401;SDS011;43226;51.110;6.998;2023-07-13T05:08:02;3.63;;;1.60;;
57401;SDS011;43226;51.110;6.998;2023-07-13T05:10:27;3.13;;;1.10;;
57401;SDS011;43226;51.110;6.998;2023-07-13T05:12:52;1.87;;;1.03;;
57401;SDS011;43226;51.110;6.998;2023-07-13T05:15:18;2.20;;;1.10;;
57401;SDS011;43226;51.110;6.998;2023-07-13T05:17:46;2.60;;;1.40;;
57401;SDS011;43226;51.110;6.998;2023-07-13T05:20:12;1.67;;;1.13;;
57401;SDS011;43226;51.110;6.998;2023-07-13T05:22:37;3.47;;;1.30;;
57401;SDS011;43226;51.110;6.998;2023-07-13T05:25:05;3.10;;;1.43;;
57401;SDS011;43226;51.110;6.998;2023-07-13T05:27:31;3.07;;;1.30;;
57401;SDS011;43226;51.110;6.998;2023-07-13T05:29:56;2.20;;;1.30;;
57401;SDS011;43226;51.110;6.998;2023-07-13T05:32:21;9.63;;;1.43;;
57401;SDS011;43226;51.110;6.998;2023-07-13T05:34:46;2.57;;;1.53;;
57401;SDS011;43226;51.110;6.998;2023-07-13T05:37:11;1.20;;;1.10;;
57401;SDS011;43226;51.110;6.998;2023-07-13T05:39:37;1.90;;;1.20;;
57401;SDS011;43226;51.110;6.998;2023-07-13T05:42:02;4.40;;;1.50;;
57401;SDS011;43226;51.110;6.998;2023-07-13T05:44:27;4.27;;;1.90;;
57401;SDS011;43226;51.110;6.998;2023-07-13T05:46:52;3.13;;;1.60;;
57401;SDS011;43226;51.110;6.998;2023-07-13T05:49:18;5.20;;;1.70;;
57401;SDS011;43226;51.110;6.998;2023-07-13T05:51:43;7.47;;;1.70;;
57401;SDS011;43226;51.110;6.998;2023-07-13T05:54:08;2.73;;;1.30;;
57401;SDS011;43226;51.110;6.998;2023-07-13T05:56:33;2.97;;;1.30;;
57401;SDS011;43226;51.110;6.998;2023-07-13T05:58:58;8.27;;;2.00;;
57401;SDS011;43226;51.110;6.998;2023-07-13T06:01:24;5.00;;;1.70;;
57401;SDS011;43226;51.110;6.998;2023-07-13T06:03:49;10.67;;;1.73;;
57401;SDS011;43226;51.110;6.998;2023-07-13T06:06:14;2.10;;;1.03;;
57401;SDS011;43226;51.110;6.998;2023-07-13T06:08:40;4.73;;;1.53;;
57401;SDS011;43226;51.110;6.998;2023-07-13T06:11:26;4.47;;;1.87;;
57401;SDS011;43226;51.110;6.998;2023-07-13T06:13:51;2.23;;;1.70;;
57401;SDS011;43226;51.110;6.998;2023-07-13T06:16:16;5.23;;;1.60;;
57401;SDS011;43226;51.110;6.998;2023-07-13T06:18:41;8.93;;;1.60;;
57401;SDS011;43226;51.110;6.998;2023-07-13T06:21:08;5.30;;;2.40;;
57401;SDS011;43226;51.110;6.998;2023-07-13T06:23:33;6.10;;;1.33;;
57401;SDS011;43226;51.110;6.998;2023-07-13T06:25:58;4.70;;;1.80;;
57401;SDS011;43226;51.110;6.998;2023-07-13T06:28:24;2.80;;;1.27;;
57401;SDS011;43226;51.110;6.998;2023-07-13T06:30:49;3.90;;;2.03;;
57401;SDS011;43226;51.110;6.998;2023-07-13T06:33:14;5.73;;;2.00;;
57401;SDS011;43226;51.110;6.998;2023-07-13T06:35:39;5.80;;;1.90;;
57401;SDS011;43226;51.110;6.998;2023-07-13T06:38:04;4.50;;;1.83;;
57401;SDS011;43226;51.110;6.998;2023-07-13T06:40:30;9.33;;;2.47;;
57401;SDS011;43226;51.110;6.998;2023-07-13T06:42:55;5.43;;;1.67;;
57401;SDS011;43226;51.110;6.998;2023-07-13T06:45:20;3.40;;;1.57;;
57401;SDS011;43226;51.110;6.998;2023-07-13T06:47:45;2.97;;;1.90;;
57401;SDS011;43226;51.110;6.998;2023-07-13T06:50:11;3.17;;;1.80;;
57401;SDS011;43226;51.110;6.998;2023-07-13T06:52:36;6.80;;;1.93;;
57401;SDS011;43226;51.110;6.998;2023-07-13T06:55:01;5.40;;;1.60;;
57401;SDS011;43226;51.110;6.998;2023-07-13T06:57:26;3.70;;;1.87;;
57401;SDS011;43226;51.110;6.998;2023-07-13T06:59:52;4.10;;;1.60;;
57401;SDS011;43226;51.110;6.998;2023-07-13T07:02:17;3.13;;;1.63;;
57401;SDS011;43226;51.110;6.998;2023-07-13T07:04:42;3.30;;;1.80;;
57401;SDS011;43226;51.110;6.998;2023-07-13T07:07:08;3.73;;;1.83;;
57401;SDS011;43226;51.110;6.998;2023-07-13T07:09:33;3.33;;;1.70;;
57401;SDS011;43226;51.110;6.998;2023-07-13T07:11:58;5.93;;;1.58;;
57401;SDS011;43226;51.110;6.998;2023-07-13T07:14:23;3.00;;;1.67;;
57401;SDS011;43226;51.110;6.998;2023-07-13T07:16:50;6.27;;;1.33;;
57401;SDS011;43226;51.110;6.998;2023-07-13T07:19:15;10.43;;;1.70;;
57401;SDS011;43226;51.110;6.998;2023-07-13T07:21:40;2.13;;;1.40;;
57401;SDS011;43226;51.110;6.998;2023-07-13T07:24:05;4.53;;;1.43;;
57401;SDS011;43226;51.110;6.998;2023-07-13T07:26:31;4.10;;;1.47;;
57401;SDS011;43226;51.110;6.998;2023-07-13T07:28:56;3.90;;;1.50;;
57401;SDS011;43226;51.110;6.998;2023-07-13T07:31:21;6.70;;;1.93;;
57401;SDS011;43226;51.110;6.998;2023-07-13T07:33:47;5.50;;;1.83;;
57401;SDS011;43226;51.110;6.998;2023-07-13T07:36:12;4.43;;;2.10;;
57401;SDS011;43226;51.110;6.998;2023-07-13T07:38:37;2.43;;;1.80;;
57401;SDS011;43226;51.110;6.998;2023-07-13T07:41:03;4.70;;;1.73;;
57401;SDS011;43226;51.110;6.998;2023-07-13T07:43:29;4.83;;;1.90;;
57401;SDS011;43226;51.110;6.998;2023-07-13T07:45:54;5.00;;;2.27;;
57401;SDS011;43226;51.110;6.998;2023-07-13T07:48:19;6.30;;;2.93;;
57401;SDS011;43226;51.110;6.998;2023-07-13T07:50:44;5.40;;;2.00;;
57401;SDS011;43226;51.110;6.998;2023-07-13T07:53:10;3.73;;;2.23;;
57401;SDS011;43226;51.110;6.998;2023-07-13T07:55:35;10.13;;;2.63;;
57401;SDS011;43226;51.110;6.998;2023-07-13T07:58:01;4.60;;;2.10;;
57401;SDS011;43226;51.110;6.998;2023-07-13T08:00:26;6.10;;;2.17;;
57401;SDS011;43226;51.110;6.998;2023-07-13T08:02:51;3.20;;;1.70;;
57401;SDS011;43226;51.110;6.998;2023-07-13T08:05:17;5.20;;;2.17;;
57401;SDS011;43226;51.110;6.998;2023-07-13T08:07:43;3.53;;;2.17;;
57401;SDS011;43226;51.110;6.998;2023-07-13T08:10:08;6.00;;;1.90;;
57401;SDS011;43226;51.110;6.998;2023-07-13T08:12:37;4.30;;;2.23;;
57401;SDS011;43226;51.110;6.998;2023-07-13T08:15:02;6.40;;;2.60;;
57401;SDS011;43226;51.110;6.998;2023-07-13T08:17:28;4.77;;;2.37;;
57401;SDS011;43226;51.110;6.998;2023-07-13T08:19:53;5.00;;;2.13;;
57401;SDS011;43226;51.110;6.998;2023-07-13T08:22:18;2.90;;;2.10;;
57401;SDS011;43226;51.110;6.998;2023-07-13T08:24:43;2.93;;;2.63;;
57401;SDS011;43226;51.110;6.998;2023-07-13T08:27:09;4.70;;;3.33;;
57401;SDS011;43226;51.110;6.998;2023-07-13T08:29:36;8.10;;;3.30;;
57401;SDS011;43226;51.110;6.998;2023-07-13T08:32:01;4.53;;;2.87;;
57401;SDS011;43226;51.110;6.998;2023-07-13T08:34:26;4.33;;;2.33;;
57401;SDS011;43226;51.110;6.998;2023-07-13T08:36:51;9.20;;;3.27;;
57401;SDS011;43226;51.110;6.998;2023-07-13T08:39:17;12.43;;;2.80;;
57401;SDS011;43226;51.110;6.998;2023-07-13T08:41:43;8.33;;;2.53;;
57401;SDS011;43226;51.110;6.998;2023-07-13T08:44:16;5.70;;;2.13;;
57401;SDS011;43226;51.110;6.998;2023-07-13T08:46:43;3.63;;;2.00;;
57401;SDS011;43226;51.110;6.998;2023-07-13T08:49:11;4.27;;;1.90;;
57401;SDS011;43226;51.110;6.998;2023-07-13T08:54:05;2.80;;;1.63;;
57401;SDS011;43226;51.110;6.998;2023-07-13T08:56:33;2.90;;;2.20;;
57401;SDS011;43226;51.110;6.998;2023-07-13T08:59:00;5.33;;;1.90;;
57401;SDS011;43226;51.110;6.998;2023-07-13T09:04:11;3.83;;;1.60;;
57401;SDS011;43226;51.110;6.998;2023-07-13T09:06:59;5.40;;;1.70;;
57401;SDS011;43226;51.110;6.998;2023-07-13T09:09:30;1.80;;;1.63;;
57401;SDS011;43226;51.110;6.998;2023-07-13T09:12:17;3.03;;;1.40;;
57401;SDS011;43226;51.110;6.998;2023-07-13T09:14:45;4.20;;;2.10;;
57401;SDS011;43226;51.110;6.998;2023-07-13T09:17:13;2.20;;;1.80;;
57401;SDS011;43226;51.110;6.998;2023-07-13T09:19:39;6.03;;;2.27;;
57401;SDS011;43226;51.110;6.998;2023-07-13T09:22:06;3.63;;;2.10;;
57401;SDS011;43226;51.110;6.998;2023-07-13T09:27:01;3.20;;;1.90;;
57401;SDS011;43226;51.110;6.998;2023-07-13T09:29:29;7.40;;;1.90;;
57401;SDS011;43226;51.110;6.998;2023-07-13T09:31:58;4.53;;;2.03;;
57401;SDS011;43226;51.110;6.998;2023-07-13T09:34:26;3.87;;;1.80;;
57401;SDS011;43226;51.110;6.998;2023-07-13T09:36:51;5.97;;;1.80;;
57401;SDS011;43226;51.110;6.998;2023-07-13T09:39:24;4.33;;;1.57;;
57401;SDS011;43226;51.110;6.998;2023-07-13T09:41:55;8.60;;;1.70;;
57401;SDS011;43226;51.110;6.998;2023-07-13T09:46:55;2.40;;;1.50;;
57401;SDS011;43226;51.110;6.998;2023-07-13T09:49:28;3.80;;;1.90;;
57401;SDS011;43226;51.110;6.998;2023-07-13T09:51:58;3.20;;;1.83;;
57401;SDS011;43226;51.110;6.998;2023-07-13T09:54:25;1.97;;;1.53;;
57401;SDS011;43226;51.110;6.998;2023-07-13T09:57:00;2.90;;;1.60;;
57401;SDS011;43226;51.110;6.998;2023-07-13T09:59:37;4.80;;;2.23;;
57401;SDS011;43226;51.110;6.998;2023-07-13T10:02:22;5.83;;;2.20;;
57401;SDS011;43226;51.110;6.998;2023-07-13T10:04:47;3.50;;;1.80;;
57401;SDS011;43226;51.110;6.998;2023-07-13T10:07:22;3.70;;;1.97;;
57401;SDS011;43226;51.110;6.998;2023-07-13T10:09:48;3.13;;;2.00;;
57401;SDS011;43226;51.110;6.998;2023-07-13T10:12:17;4.17;;;2.00;;
57401;SDS011;43226;51.110;6.998;2023-07-13T10:14:43;3.60;;;1.90;;
57401;SDS011;43226;51.110;6.998;2023-07-13T10:17:08;6.83;;;1.47;;
57401;SDS011;43226;51.110;6.998;2023-07-13T10:19:35;7.30;;;1.60;;
57401;SDS011;43226;51.110;6.998;2023-07-13T10:22:14;3.53;;;1.80;;
57401;SDS011;43226;51.110;6.998;2023-07-13T10:24:45;3.70;;;2.50;;
57401;SDS011;43226;51.110;6.998;2023-07-13T10:27:18;4.83;;;1.90;;
57401;SDS011;43226;51.110;6.998;2023-07-13T10:29:46;4.67;;;1.67;;
57401;SDS011;43226;51.110;6.998;2023-07-13T10:32:11;3.70;;;2.20;;
57401;SDS011;43226;51.110;6.998;2023-07-13T10:34:37;4.77;;;2.07;;
57401;SDS011;43226;51.110;6.998;2023-07-13T10:37:02;3.67;;;1.43;;
57401;SDS011;43226;51.110;6.998;2023-07-13T10:39:29;1.77;;;1.20;;
57401;SDS011;43226;51.110;6.998;2023-07-13T10:41:59;3.13;;;1.80;;
57401;SDS011;43226;51.110;6.998;2023-07-13T10:44:30;3.97;;;1.90;;
57401;SDS011;43226;51.110;6.998;2023-07-13T10:47:00;2.60;;;1.50;;
57401;SDS011;43226;51.110;6.998;2023-07-13T10:49:26;6.50;;;2.10;;
57401;SDS011;43226;51.110;6.998;2023-07-13T10:51:52;2.60;;;1.67;;
57401;SDS011;43226;51.110;6.998;2023-07-13T10:54:21;4.37;;;2.27;;
57401;SDS011;43226;51.110;6.998;2023-07-13T10:56:52;6.77;;;1.60;;
57401;SDS011;43226;51.110;6.998;2023-07-13T10:59:19;3.53;;;1.60;;
57401;SDS011;43226;51.110;6.998;2023-07-13T11:04:19;3.53;;;1.80;;
57401;SDS011;43226;51.110;6.998;2023-07-13T11:06:45;3.27;;;1.63;;
57401;SDS011;43226;51.110;6.998;2023-07-13T11:11:42;4.17;;;1.80;;
57401;SDS011;43226;51.110;6.998;2023-07-13T11:16:45;5.00;;;1.80;;
57401;SDS011;43226;51.110;6.998;2023-07-13T11:22:15;4.97;;;1.93;;
57401;SDS011;43226;51.110;6.998;2023-07-13T11:24:52;2.23;;;1.70;;
57401;SDS011;43226;51.110;6.998;2023-07-13T11:28:07;4.10;;;1.80;;
57401;SDS011;43226;51.110;6.998;2023-07-13T11:30:07;4.60;;;1.50;;
57401;SDS011;43226;51.110;6.998;2023-07-13T11:32:33;4.43;;;2.00;;
57401;SDS011;43226;51.110;6.998;2023-07-13T11:34:59;4.93;;;1.67;;
57401;SDS011;43226;51.110;6.998;2023-07-13T11:37:24;2.60;;;1.70;;
57401;SDS011;43226;51.110;6.998;2023-07-13T11:39:50;2.63;;;1.37;;
57401;SDS011;43226;51.110;6.998;2023-07-13T11:42:17;3.53;;;1.67;;
57401;SDS011;43226;51.110;6.998;2023-07-13T11:44:45;4.50;;;1.67;;
57401;SDS011;43226;51.110;6.998;2023-07-13T11:47:14;2.70;;;1.77;;
57401;SDS011;43226;51.110;6.998;2023-07-13T11:49:43;5.23;;;1.50;;
57401;SDS011;43226;51.110;6.998;2023-07-13T11:52:12;5.27;;;1.80;;
57401;SDS011;43226;51.110;6.998;2023-07-13T11:54:46;3.90;;;1.60;;
57401;SDS011;43226;51.110;6.998;2023-07-13T11:59:40;3.80;;;1.85;;
57401;SDS011;43226;51.110;6.998;2023-07-13T12:02:16;3.40;;;1.70;;
57401;SDS011;43226;51.110;6.998;2023-07-13T12:04:42;4.30;;;1.80;;
57401;SDS011;43226;51.110;6.998;2023-07-13T12:07:14;5.13;;;1.80;;
57401;SDS011;43226;51.110;6.998;2023-07-13T12:09:40;3.23;;;1.90;;
57401;SDS011;43226;51.110;6.998;2023-07-13T12:12:10;4.07;;;1.60;;
57401;SDS011;43226;51.110;6.998;2023-07-13T12:14:35;5.23;;;2.20;;
57401;SDS011;43226;51.110;6.998;2023-07-13T12:17:00;2.40;;;1.83;;
57401;SDS011;43226;51.110;6.998;2023-07-13T12:19:26;2.13;;;1.90;;
57401;SDS011;43226;51.110;6.998;2023-07-13T12:21:57;4.63;;;2.03;;
57401;SDS011;43226;51.110;6.998;2023-07-13T12:24:23;3.30;;;1.70;;
57401;SDS011;43226;51.110;6.998;2023-07-13T12:27:22;2.17;;;1.30;;
57401;SDS011;43226;51.110;6.998;2023-07-13T12:29:48;2.13;;;1.40;;
57401;SDS011;43226;51.110;6.998;2023-07-13T12:32:14;3.07;;;1.37;;
57401;SDS011;43226;51.110;6.998;2023-07-13T12:37:41;5.30;;;1.47;;
57401;SDS011;43226;51.110;6.998;2023-07-13T12:40:12;2.70;;;1.63;;
57401;SDS011;43226;51.110;6.998;2023-07-13T12:42:38;5.37;;;1.77;;
57401;SDS011;43226;51.110;6.998;2023-07-13T12:45:15;3.43;;;1.50;;
57401;SDS011;43226;51.110;6.998;2023-07-13T12:47:42;4.83;;;1.60;;
57401;SDS011;43226;51.110;6.998;2023-07-13T12:50:21;2.37;;;1.40;;
57401;SDS011;43226;51.110;6.998;2023-07-13T12:52:53;1.67;;;1.23;;
57401;SDS011;43226;51.110;6.998;2023-07-13T12:55:19;2.43;;;1.30;;
57401;SDS011;43226;51.110;6.998;2023-07-13T12:57:53;3.70;;;1.50;;
57401;SDS011;43226;51.110;6.998;2023-07-13T13:00:20;3.90;;;1.43;;
57401;SDS011;43226;51.110;6.998;2023-07-13T13:02:46;1.93;;;1.37;;
57401;SDS011;43226;51.110;6.998;2023-07-13T13:05:14;4.53;;;1.27;;
57401;SDS011;43226;51.110;6.998;2023-07-13T13:07:39;3.57;;;1.40;;
57401;SDS011;43226;51.110;6.998;2023-07-13T13:10:11;1.97;;;1.70;;
57401;SDS011;43226;51.110;6.998;2023-07-13T13:12:36;2.93;;;1.37;;
57401;SDS011;43226;51.110;6.998;2023-07-13T13:15:01;2.50;;;1.23;;
57401;SDS011;43226;51.110;6.998;2023-07-13T13:17:27;2.50;;;1.50;;
57401;SDS011;43226;51.110;6.998;2023-07-13T13:19:54;2.57;;;1.43;;
57401;SDS011;43226;51.110;6.998;2023-07-13T13:22:19;3.40;;;1.63;;
57401;SDS011;43226;51.110;6.998;2023-07-13T13:24:44;2.97;;;1.63;;
57401;SDS011;43226;51.110;6.998;2023-07-13T13:27:14;2.80;;;1.40;;
57401;SDS011;43226;51.110;6.998;2023-07-13T13:29:40;3.00;;;1.40;;
57401;SDS011;43226;51.110;6.998;2023-07-13T13:32:09;2.07;;;1.30;;
57401;SDS011;43226;51.110;6.998;2023-07-13T13:34:35;1.87;;;1.40;;
57401;SDS011;43226;51.110;6.998;2023-07-13T13:37:00;2.20;;;1.23;;
57401;SDS011;43226;51.110;6.998;2023-07-13T13:39:28;2.53;;;1.03;;
57401;SDS011;43226;51.110;6.998;2023-07-13T13:41:55;8.10;;;1.47;;
57401;SDS011;43226;51.110;6.998;2023-07-13T13:44:20;2.00;;;1.43;;
57401;SDS011;43226;51.110;6.998;2023-07-13T13:46:47;3.57;;;1.20;;
57401;SDS011;43226;51.110;6.998;2023-07-13T13:49:14;1.77;;;1.00;;
57401;SDS011;43226;51.110;6.998;2023-07-13T13:51:41;1.10;;;0.90;;
57401;SDS011;43226;51.110;6.998;2023-07-13T13:54:09;3.50;;;1.40;;
57401;SDS011;43226;51.110;6.998;2023-07-13T13:56:35;1.27;;;1.17;;
57401;SDS011;43226;51.110;6.998;2023-07-13T13:59:00;2.23;;;1.30;;
57401;SDS011;43226;51.110;6.998;2023-07-13T14:01:30;2.60;;;1.37;;
57401;SDS011;43226;51.110;6.998;2023-07-13T14:03:56;4.10;;;1.30;;
57401;SDS011;43226;51.110;6.998;2023-07-13T14:06:21;1.77;;;1.20;;
57401;SDS011;43226;51.110;6.998;2023-07-13T14:08:46;1.40;;;1.20;;
57401;SDS011;43226;51.110;6.998;2023-07-13T14:11:15;5.70;;;1.57;;
57401;SDS011;43226;51.110;6.998;2023-07-13T14:13:42;1.50;;;1.40;;
57401;SDS011;43226;51.110;6.998;2023-07-13T14:16:12;1.60;;;1.40;;
57401;SDS011;43226;51.110;6.998;2023-07-13T14:18:38;2.73;;;1.33;;
57401;SDS011;43226;51.110;6.998;2023-07-13T14:21:03;6.07;;;1.10;;
57401;SDS011;43226;51.110;6.998;2023-07-13T14:23:28;9.37;;;1.37;;
57401;SDS011;43226;51.110;6.998;2023-07-13T14:25:53;3.47;;;1.13;;
57401;SDS011;43226;51.110;6.998;2023-07-13T14:28:23;3.50;;;1.13;;
57401;SDS011;43226;51.110;6.998;2023-07-13T14:30:49;1.40;;;1.30;;
57401;SDS011;43226;51.110;6.998;2023-07-13T14:33:14;2.13;;;1.23;;
57401;SDS011;43226;51.110;6.998;2023-07-13T14:35:39;4.40;;;1.30;;
57401;SDS011;43226;51.110;6.998;2023-07-13T14:38:08;3.13;;;1.30;;
57401;SDS011;43226;51.110;6.998;2023-07-13T14:40:33;1.97;;;1.10;;
57401;SDS011;43226;51.110;6.998;2023-07-13T14:42:59;2.53;;;1.20;;
57401;SDS011;43226;51.110;6.998;2023-07-13T14:45:24;2.97;;;1.33;;
57401;SDS011;43226;51.110;6.998;2023-07-13T14:47:50;3.53;;;1.30;;
57401;SDS011;43226;51.110;6.998;2023-07-13T14:50:17;2.93;;;1.20;;
57401;SDS011;43226;51.110;6.998;2023-07-13T14:52:42;4.43;;;1.20;;
57401;SDS011;43226;51.110;6.998;2023-07-13T14:55:11;1.80;;;1.17;;
57401;SDS011;43226;51.110;6.998;2023-07-13T14:57:36;2.10;;;1.40;;
57401;SDS011;43226;51.110;6.998;2023-07-13T15:00:01;7.80;;;1.10;;
57401;SDS011;43226;51.110;6.998;2023-07-13T15:02:29;3.90;;;1.53;;
57401;SDS011;43226;51.110;6.998;2023-07-13T15:04:55;1.97;;;1.27;;
57401;SDS011;43226;51.110;6.998;2023-07-13T15:07:20;2.07;;;1.10;;
57401;SDS011;43226;51.110;6.998;2023-07-13T15:09:46;2.60;;;1.43;;
57401;SDS011;43226;51.110;6.998;2023-07-13T15:12:13;5.00;;;1.50;;
57401;SDS011;43226;51.110;6.998;2023-07-13T15:14:38;2.20;;;1.20;;
57401;SDS011;43226;51.110;6.998;2023-07-13T15:17:03;3.50;;;1.50;;